Lumberton, Mississippi
Current Conditions -  °F | °C
As of 12:53 PM on Wednesday 26 Nov 2014 (Local Time) from KHBG Reporting Station
Clear Clear  
Wind Chill: 64°   Ceiling: Unl
Heat Index: 64°   Visibility: 10mi
Dew Point: 30°   Wind: 13mph
Humidity: 28%   Direction: 220°SW
Pressure: 30.17"   Gusts: 21mph
Location:  31°N, 89.45°W
Report Text: KHBG 261853Z AUTO 22011G18KT 200V290 10SM CLR 18/M01 A3017 RMK AO2 SLP215 T01781011
Loading
Personal Weather Stations






























Interactive Weather Map New forecast layout! Learn more

10-Day Weather Forecast

Advertisements
Track Severe Weather on mobile